Butte, MT (59701)

1:24 AM MDT on July 31, 2016 (GMT -0600)
Burning Tree Lane | | Change Station
Active Advisory: Fire Weather Warning

Elev 5486 ft 45.97 °N, 112.50 °W | Updated 11 minutes ago

Clear
Clear
57.9 °F
Feels Like 57.9 °F
N
0.0
Wind Variable Wind from ESE

Today
High -- | Low -- °F
--% Chance of Precip.
Yesterday
High -- | Low -- °F
Precip. -- in
Pressure 29.72 in
Visibility 10.0 miles
Clouds Clear
Dew Point 39 °F
Humidity 50%
Rainfall 0.00 in
Snow Depth Not available.
6:12 AM 8:59 PM
Waning Crescent, 8% visible
METAR KBTM 310653Z AUTO 12005KT 10SM CLR 17/03 A2993 RMK AO2 SLP064 T01720033 403170094
Pressure 29.72 in
Visibility 10.0 miles
Clouds Clear
Dew Point 39 °F
Humidity 50%
Rainfall 0.00 in
Snow Depth Not available.
6:12 AM 8:59 PM
Waning Crescent, 8% visible
METAR KBTM 310653Z AUTO 12005KT 10SM CLR 17/03 A2993 RMK AO2 SLP064 T01720033 403170094

10-Day Weather Forecast

Almanac

Astronomy

Jul. 31, 2016 Rise Set
Actual Time
Civil Twilight
Nautical Twilight
Astronomical Twilight
Moon
Length of Visible Light
Length of Day
Tomorrow will be .
, % of the Moon is Illuminated

Today's Extremes

State Highs State Lows

Community

WunderPhotos

Upload Photos

1,928,768 photos uploaded!

WunderBlog® & News

Nearby

Air Quality

  Air Quality AQ Index Pollutant
Not available.

Snow Depth

Station Depth Elevation

Earthquake Activity

City Distance Mag. Time & Date
Minimum magnitude displayed is 2.5.

Coastal Water Temperatures

Place Temperature

Stations

Nearby Weather Stations

Station Location Temp. Windchill Dew Point Humidity Wind Precip. Elev Updated Type
                   

Watches & Warnings

Fire Weather Warning
Issued: 2:13 PM MDT Jul. 30, 2016 – National Weather Service

... Red flag warning in effect from noon Sunday to 8 PM MDT
Sunday...

The Fire Weather Watch is no longer in effect.


* Affected area: fire zone 110 (deerlodge/west beaverhead) fire
zone 111 (east beaverhead)

* winds: westerly winds 15 to 25 mph with ridge top winds from 25
to 30 mph. Wind gusts of 30 to 40 mph will be common into the
early evening hours.

* Minimum humidities: 8 to 14 percent at lower elevations and near
20 percent at high elevations.

* Timing: winds will increase around noon... peaking by late
afternoon. The most critical combination of winds and low rh
will be between roughly 3pm and 7pm.